Cairo, Oregon
Current Conditions -  °F | °C
As of 6:53 AM on Monday 20 Oct 2014 (Local Time) from KONO Reporting Station
Clear Clear  
Wind Chill: 37°   Ceiling: Unl
Heat Index: 37°   Visibility: 10mi
Dew Point: 30°   Wind: 3mph
Humidity: 76%   Direction: 270°W
Pressure: 29.88"   Gusts: NA
Location:  44.0817°N, 117.014°W
Report Text: KONO 201253Z AUTO 27003KT 10SM CLR 03/M01 A2988 RMK AO2 SLP121 T00281011
Loading
Personal Weather Stations






























Interactive Weather Map
Tropical Storm Tracking
New forecast layout! Learn more

10-Day Weather Forecast

Advertisements
Track Severe Weather on mobile